sensor_id;sensor_type;location;lat;lon;timestamp;P1;durP1;ratioP1;P2;durP2;ratioP2
6290;SDS011;3178;48.730;8.990;2023-04-01T00:00:54;4.43;;;0.90;;
6290;SDS011;3178;48.730;8.990;2023-04-01T00:03:21;6.40;;;1.03;;
6290;SDS011;3178;48.730;8.990;2023-04-01T00:05:48;4.70;;;1.30;;
6290;SDS011;3178;48.730;8.990;2023-04-01T00:08:14;5.23;;;1.20;;
6290;SDS011;3178;48.730;8.990;2023-04-01T00:10:40;4.60;;;0.90;;
6290;SDS011;3178;48.730;8.990;2023-04-01T00:13:05;3.70;;;1.00;;
6290;SDS011;3178;48.730;8.990;2023-04-01T00:15:31;4.33;;;0.73;;
6290;SDS011;3178;48.730;8.990;2023-04-01T00:17:57;10.77;;;1.10;;
6290;SDS011;3178;48.730;8.990;2023-04-01T00:20:23;3.43;;;1.00;;
6290;SDS011;3178;48.730;8.990;2023-04-01T00:22:49;8.67;;;1.23;;
6290;SDS011;3178;48.730;8.990;2023-04-01T00:25:15;4.13;;;1.10;;
6290;SDS011;3178;48.730;8.990;2023-04-01T00:27:41;2.20;;;0.90;;
6290;SDS011;3178;48.730;8.990;2023-04-01T00:30:07;2.50;;;0.70;;
6290;SDS011;3178;48.730;8.990;2023-04-01T00:32:33;3.20;;;0.90;;
6290;SDS011;3178;48.730;8.990;2023-04-01T00:34:59;6.30;;;1.30;;
6290;SDS011;3178;48.730;8.990;2023-04-01T00:37:25;3.07;;;0.97;;
6290;SDS011;3178;48.730;8.990;2023-04-01T00:39:52;3.83;;;1.23;;
6290;SDS011;3178;48.730;8.990;2023-04-01T00:42:17;3.97;;;0.93;;
6290;SDS011;3178;48.730;8.990;2023-04-01T00:44:44;4.43;;;1.10;;
6290;SDS011;3178;48.730;8.990;2023-04-01T00:47:15;3.50;;;1.23;;
6290;SDS011;3178;48.730;8.990;2023-04-01T00:49:43;5.60;;;1.50;;
6290;SDS011;3178;48.730;8.990;2023-04-01T00:52:12;6.67;;;1.13;;
6290;SDS011;3178;48.730;8.990;2023-04-01T00:54:42;3.40;;;1.07;;
6290;SDS011;3178;48.730;8.990;2023-04-01T00:57:15;6.20;;;1.00;;
6290;SDS011;3178;48.730;8.990;2023-04-01T00:59:50;6.07;;;1.30;;
6290;SDS011;3178;48.730;8.990;2023-04-01T01:02:19;5.93;;;1.43;;
6290;SDS011;3178;48.730;8.990;2023-04-01T01:04:45;5.53;;;1.47;;
6290;SDS011;3178;48.730;8.990;2023-04-01T01:10:17;2.27;;;1.30;;
6290;SDS011;3178;48.730;8.990;2023-04-01T01:18:22;3.30;;;0.90;;
6290;SDS011;3178;48.730;8.990;2023-04-01T01:38:04;3.63;;;1.23;;
6290;SDS011;3178;48.730;8.990;2023-04-01T01:40:33;2.20;;;0.80;;
6290;SDS011;3178;48.730;8.990;2023-04-01T01:43:03;1.20;;;0.60;;
6290;SDS011;3178;48.730;8.990;2023-04-01T01:45:33;2.90;;;0.87;;
6290;SDS011;3178;48.730;8.990;2023-04-01T01:48:03;5.27;;;0.80;;
6290;SDS011;3178;48.730;8.990;2023-04-01T01:50:31;2.40;;;0.80;;
6290;SDS011;3178;48.730;8.990;2023-04-01T01:53:05;2.00;;;0.80;;
6290;SDS011;3178;48.730;8.990;2023-04-01T01:55:36;1.80;;;0.60;;
6290;SDS011;3178;48.730;8.990;2023-04-01T02:00:44;1.87;;;0.60;;
6290;SDS011;3178;48.730;8.990;2023-04-01T02:03:16;1.63;;;0.70;;
6290;SDS011;3178;48.730;8.990;2023-04-01T02:05:44;3.30;;;0.70;;
6290;SDS011;3178;48.730;8.990;2023-04-01T02:08:15;2.13;;;0.70;;
6290;SDS011;3178;48.730;8.990;2023-04-01T02:10:49;1.57;;;0.70;;
6290;SDS011;3178;48.730;8.990;2023-04-01T02:13:48;4.87;;;0.93;;
6290;SDS011;3178;48.730;8.990;2023-04-01T02:16:33;4.40;;;0.80;;
6290;SDS011;3178;48.730;8.990;2023-04-01T02:19:04;2.40;;;1.00;;
6290;SDS011;3178;48.730;8.990;2023-04-01T02:21:33;3.77;;;0.77;;
6290;SDS011;3178;48.730;8.990;2023-04-01T02:24:02;1.50;;;0.70;;
6290;SDS011;3178;48.730;8.990;2023-04-01T02:26:30;2.50;;;0.80;;
6290;SDS011;3178;48.730;8.990;2023-04-01T02:28:56;2.23;;;1.00;;
6290;SDS011;3178;48.730;8.990;2023-04-01T02:31:24;1.80;;;1.13;;
6290;SDS011;3178;48.730;8.990;2023-04-01T02:33:50;1.83;;;0.87;;
6290;SDS011;3178;48.730;8.990;2023-04-01T02:36:16;2.70;;;0.70;;
6290;SDS011;3178;48.730;8.990;2023-04-01T02:38:42;2.40;;;0.80;;
6290;SDS011;3178;48.730;8.990;2023-04-01T02:41:10;1.33;;;0.67;;
6290;SDS011;3178;48.730;8.990;2023-04-01T02:43:36;0.90;;;0.47;;
6290;SDS011;3178;48.730;8.990;2023-04-01T02:46:02;3.37;;;0.90;;
6290;SDS011;3178;48.730;8.990;2023-04-01T02:48:28;3.10;;;1.00;;
6290;SDS011;3178;48.730;8.990;2023-04-01T02:50:54;1.67;;;0.80;;
6290;SDS011;3178;48.730;8.990;2023-04-01T02:53:19;1.67;;;0.60;;
6290;SDS011;3178;48.730;8.990;2023-04-01T02:55:45;1.77;;;0.60;;
6290;SDS011;3178;48.730;8.990;2023-04-01T02:58:11;1.73;;;0.60;;
6290;SDS011;3178;48.730;8.990;2023-04-01T03:00:37;1.20;;;0.60;;
6290;SDS011;3178;48.730;8.990;2023-04-01T03:03:03;1.60;;;0.87;;
6290;SDS011;3178;48.730;8.990;2023-04-01T03:05:29;2.43;;;0.60;;
6290;SDS011;3178;48.730;8.990;2023-04-01T03:07:54;1.00;;;0.60;;
6290;SDS011;3178;48.730;8.990;2023-04-01T03:10:20;1.20;;;0.50;;
6290;SDS011;3178;48.730;8.990;2023-04-01T03:12:46;2.60;;;0.70;;
6290;SDS011;3178;48.730;8.990;2023-04-01T03:15:12;4.33;;;0.77;;
6290;SDS011;3178;48.730;8.990;2023-04-01T03:17:39;3.43;;;0.60;;
6290;SDS011;3178;48.730;8.990;2023-04-01T03:20:06;3.63;;;0.90;;
6290;SDS011;3178;48.730;8.990;2023-04-01T03:22:33;4.63;;;0.93;;
6290;SDS011;3178;48.730;8.990;2023-04-01T03:25:00;2.13;;;0.93;;
6290;SDS011;3178;48.730;8.990;2023-04-01T03:27:26;1.63;;;0.77;;
6290;SDS011;3178;48.730;8.990;2023-04-01T03:29:51;2.20;;;0.80;;
6290;SDS011;3178;48.730;8.990;2023-04-01T03:32:17;2.10;;;0.90;;
6290;SDS011;3178;48.730;8.990;2023-04-01T03:34:42;1.83;;;0.60;;
6290;SDS011;3178;48.730;8.990;2023-04-01T03:37:08;2.87;;;0.63;;
6290;SDS011;3178;48.730;8.990;2023-04-01T03:39:33;2.57;;;0.73;;
6290;SDS011;3178;48.730;8.990;2023-04-01T03:41:59;6.53;;;1.20;;
6290;SDS011;3178;48.730;8.990;2023-04-01T03:44:25;3.87;;;0.80;;
6290;SDS011;3178;48.730;8.990;2023-04-01T03:46:51;2.27;;;0.70;;
6290;SDS011;3178;48.730;8.990;2023-04-01T03:49:17;1.87;;;0.57;;
6290;SDS011;3178;48.730;8.990;2023-04-01T03:51:43;1.50;;;0.77;;
6290;SDS011;3178;48.730;8.990;2023-04-01T03:54:09;1.53;;;0.60;;
6290;SDS011;3178;48.730;8.990;2023-04-01T03:56:35;3.00;;;0.77;;
6290;SDS011;3178;48.730;8.990;2023-04-01T03:59:02;2.90;;;0.80;;
6290;SDS011;3178;48.730;8.990;2023-04-01T04:01:29;4.70;;;1.00;;
6290;SDS011;3178;48.730;8.990;2023-04-01T04:03:55;2.03;;;0.60;;
6290;SDS011;3178;48.730;8.990;2023-04-01T04:06:21;4.20;;;1.20;;
6290;SDS011;3178;48.730;8.990;2023-04-01T04:08:48;6.23;;;1.70;;
6290;SDS011;3178;48.730;8.990;2023-04-01T04:11:14;3.47;;;1.00;;
6290;SDS011;3178;48.730;8.990;2023-04-01T04:13:40;3.63;;;0.80;;
6290;SDS011;3178;48.730;8.990;2023-04-01T04:16:06;2.20;;;0.93;;
6290;SDS011;3178;48.730;8.990;2023-04-01T04:18:32;2.60;;;0.60;;
6290;SDS011;3178;48.730;8.990;2023-04-01T04:20:57;2.20;;;0.80;;
6290;SDS011;3178;48.730;8.990;2023-04-01T04:23:23;2.83;;;0.87;;
6290;SDS011;3178;48.730;8.990;2023-04-01T04:26:05;6.20;;;0.90;;
6290;SDS011;3178;48.730;8.990;2023-04-01T04:28:33;2.33;;;0.80;;
6290;SDS011;3178;48.730;8.990;2023-04-01T04:30:58;2.60;;;0.83;;
6290;SDS011;3178;48.730;8.990;2023-04-01T04:33:24;6.07;;;0.93;;
6290;SDS011;3178;48.730;8.990;2023-04-01T04:35:51;8.07;;;0.60;;
6290;SDS011;3178;48.730;8.990;2023-04-01T04:38:16;3.30;;;0.87;;
6290;SDS011;3178;48.730;8.990;2023-04-01T04:40:42;2.50;;;0.60;;
6290;SDS011;3178;48.730;8.990;2023-04-01T04:43:12;1.43;;;0.60;;
6290;SDS011;3178;48.730;8.990;2023-04-01T04:45:39;1.30;;;0.60;;
6290;SDS011;3178;48.730;8.990;2023-04-01T04:48:09;6.73;;;0.53;;
6290;SDS011;3178;48.730;8.990;2023-04-01T04:50:38;1.97;;;0.60;;
6290;SDS011;3178;48.730;8.990;2023-04-01T04:53:05;2.50;;;0.60;;
6290;SDS011;3178;48.730;8.990;2023-04-01T04:55:31;5.37;;;0.70;;
6290;SDS011;3178;48.730;8.990;2023-04-01T04:57:56;2.00;;;0.60;;
6290;SDS011;3178;48.730;8.990;2023-04-01T05:00:22;8.30;;;0.80;;
6290;SDS011;3178;48.730;8.990;2023-04-01T05:02:47;3.20;;;0.93;;
6290;SDS011;3178;48.730;8.990;2023-04-01T05:05:13;4.13;;;0.93;;
6290;SDS011;3178;48.730;8.990;2023-04-01T05:07:38;2.50;;;0.97;;
6290;SDS011;3178;48.730;8.990;2023-04-01T05:10:04;10.40;;;1.10;;
6290;SDS011;3178;48.730;8.990;2023-04-01T05:12:30;2.50;;;0.60;;
6290;SDS011;3178;48.730;8.990;2023-04-01T05:14:57;7.70;;;1.50;;
6290;SDS011;3178;48.730;8.990;2023-04-01T05:17:23;4.23;;;1.20;;
6290;SDS011;3178;48.730;8.990;2023-04-01T05:19:48;3.10;;;0.87;;
6290;SDS011;3178;48.730;8.990;2023-04-01T05:22:14;4.33;;;1.00;;
6290;SDS011;3178;48.730;8.990;2023-04-01T05:24:39;8.00;;;1.23;;
6290;SDS011;3178;48.730;8.990;2023-04-01T05:27:05;6.10;;;1.30;;
6290;SDS011;3178;48.730;8.990;2023-04-01T05:29:30;4.20;;;1.07;;
6290;SDS011;3178;48.730;8.990;2023-04-01T05:31:56;3.33;;;0.93;;
6290;SDS011;3178;48.730;8.990;2023-04-01T05:34:21;5.20;;;0.93;;
6290;SDS011;3178;48.730;8.990;2023-04-01T05:36:47;1.80;;;0.90;;
6290;SDS011;3178;48.730;8.990;2023-04-01T05:39:12;5.40;;;0.90;;
6290;SDS011;3178;48.730;8.990;2023-04-01T05:41:38;3.30;;;1.37;;
6290;SDS011;3178;48.730;8.990;2023-04-01T05:44:05;8.07;;;0.87;;
6290;SDS011;3178;48.730;8.990;2023-04-01T05:46:31;7.50;;;1.30;;
6290;SDS011;3178;48.730;8.990;2023-04-01T05:48:57;3.57;;;0.70;;
6290;SDS011;3178;48.730;8.990;2023-04-01T05:51:22;7.17;;;1.30;;
6290;SDS011;3178;48.730;8.990;2023-04-01T05:53:48;2.93;;;1.00;;
6290;SDS011;3178;48.730;8.990;2023-04-01T05:56:14;1.77;;;0.83;;
6290;SDS011;3178;48.730;8.990;2023-04-01T05:58:40;3.73;;;0.90;;
6290;SDS011;3178;48.730;8.990;2023-04-01T06:01:11;3.20;;;0.90;;
6290;SDS011;3178;48.730;8.990;2023-04-01T06:03:37;2.30;;;0.80;;
6290;SDS011;3178;48.730;8.990;2023-04-01T06:06:03;6.00;;;1.00;;
6290;SDS011;3178;48.730;8.990;2023-04-01T06:08:32;5.23;;;1.43;;
6290;SDS011;3178;48.730;8.990;2023-04-01T06:19:17;4.60;;;0.90;;
6290;SDS011;3178;48.730;8.990;2023-04-01T06:24:36;4.07;;;1.13;;
6290;SDS011;3178;48.730;8.990;2023-04-01T06:30:30;1.43;;;0.60;;
6290;SDS011;3178;48.730;8.990;2023-04-01T06:35:57;5.73;;;1.00;;
6290;SDS011;3178;48.730;8.990;2023-04-01T06:38:48;2.07;;;0.90;;
6290;SDS011;3178;48.730;8.990;2023-04-01T06:44:23;2.60;;;1.20;;
6290;SDS011;3178;48.730;8.990;2023-04-01T06:47:02;3.50;;;0.80;;
6290;SDS011;3178;48.730;8.990;2023-04-01T06:52:36;2.57;;;1.77;;
6290;SDS011;3178;48.730;8.990;2023-04-01T06:57:47;1.40;;;0.50;;
6290;SDS011;3178;48.730;8.990;2023-04-01T07:00:18;2.23;;;1.10;;
6290;SDS011;3178;48.730;8.990;2023-04-01T07:02:58;3.53;;;0.80;;
6290;SDS011;3178;48.730;8.990;2023-04-01T07:05:41;2.60;;;0.90;;
6290;SDS011;3178;48.730;8.990;2023-04-01T07:08:16;1.87;;;0.83;;
6290;SDS011;3178;48.730;8.990;2023-04-01T07:10:55;2.73;;;0.90;;
6290;SDS011;3178;48.730;8.990;2023-04-01T07:13:39;4.23;;;1.20;;
6290;SDS011;3178;48.730;8.990;2023-04-01T07:16:34;3.80;;;0.90;;
6290;SDS011;3178;48.730;8.990;2023-04-01T07:22:00;1.48;;;0.60;;
6290;SDS011;3178;48.730;8.990;2023-04-01T07:24:32;3.57;;;0.97;;
6290;SDS011;3178;48.730;8.990;2023-04-01T07:27:00;4.47;;;0.73;;
6290;SDS011;3178;48.730;8.990;2023-04-01T07:29:26;2.50;;;0.80;;
6290;SDS011;3178;48.730;8.990;2023-04-01T07:31:56;3.63;;;0.80;;
6290;SDS011;3178;48.730;8.990;2023-04-01T07:41:12;2.80;;;1.10;;
6290;SDS011;3178;48.730;8.990;2023-04-01T07:44:10;2.77;;;0.97;;
6290;SDS011;3178;48.730;8.990;2023-04-01T07:52:58;9.23;;;1.37;;
6290;SDS011;3178;48.730;8.990;2023-04-01T07:55:59;4.10;;;0.87;;
6290;SDS011;3178;48.730;8.990;2023-04-01T08:01:12;2.43;;;0.60;;
6290;SDS011;3178;48.730;8.990;2023-04-01T08:09:21;2.93;;;0.80;;
6290;SDS011;3178;48.730;8.990;2023-04-01T08:12:13;4.50;;;1.17;;
6290;SDS011;3178;48.730;8.990;2023-04-01T08:17:48;2.33;;;0.90;;
6290;SDS011;3178;48.730;8.990;2023-04-01T08:20:34;2.27;;;0.70;;
6290;SDS011;3178;48.730;8.990;2023-04-01T08:23:19;3.10;;;1.10;;
6290;SDS011;3178;48.730;8.990;2023-04-01T08:25:53;1.73;;;0.70;;
6290;SDS011;3178;48.730;8.990;2023-04-01T08:29:01;1.30;;;0.70;;
6290;SDS011;3178;48.730;8.990;2023-04-01T08:34:18;1.30;;;0.50;;
6290;SDS011;3178;48.730;8.990;2023-04-01T08:37:04;6.30;;;0.70;;
6290;SDS011;3178;48.730;8.990;2023-04-01T08:39:51;2.20;;;0.83;;
6290;SDS011;3178;48.730;8.990;2023-04-01T08:42:33;2.17;;;0.73;;
6290;SDS011;3178;48.730;8.990;2023-04-01T08:45:18;2.77;;;1.20;;
6290;SDS011;3178;48.730;8.990;2023-04-01T09:04:25;2.50;;;0.90;;
6290;SDS011;3178;48.730;8.990;2023-04-01T09:07:27;1.47;;;0.50;;
6290;SDS011;3178;48.730;8.990;2023-04-01T09:10:17;1.83;;;0.70;;
6290;SDS011;3178;48.730;8.990;2023-04-01T09:18:08;1.80;;;1.00;;
6290;SDS011;3178;48.730;8.990;2023-04-01T09:23:47;5.60;;;1.30;;
6290;SDS011;3178;48.730;8.990;2023-04-01T09:34:55;1.20;;;0.70;;
6290;SDS011;3178;48.730;8.990;2023-04-01T09:37:35;1.00;;;0.50;;
6290;SDS011;3178;48.730;8.990;2023-04-01T09:45:48;1.20;;;0.50;;
6290;SDS011;3178;48.730;8.990;2023-04-01T09:49:11;1.73;;;0.70;;
6290;SDS011;3178;48.730;8.990;2023-04-01T09:52:18;4.97;;;0.70;;
6290;SDS011;3178;48.730;8.990;2023-04-01T10:03:38;1.30;;;0.43;;
6290;SDS011;3178;48.730;8.990;2023-04-01T10:06:27;0.90;;;0.50;;
6290;SDS011;3178;48.730;8.990;2023-04-01T10:20:31;1.47;;;0.50;;
6290;SDS011;3178;48.730;8.990;2023-04-01T10:51:32;1.10;;;0.40;;
6290;SDS011;3178;48.730;8.990;2023-04-01T10:57:53;1.00;;;0.47;;
6290;SDS011;3178;48.730;8.990;2023-04-01T11:00:35;1.00;;;0.40;;
6290;SDS011;3178;48.730;8.990;2023-04-01T11:12:11;1.00;;;0.50;;
6290;SDS011;3178;48.730;8.990;2023-04-01T11:17:59;1.00;;;0.60;;
6290;SDS011;3178;48.730;8.990;2023-04-01T11:23:28;0.90;;;0.50;;
6290;SDS011;3178;48.730;8.990;2023-04-01T11:26:09;2.03;;;0.60;;
6290;SDS011;3178;48.730;8.990;2023-04-01T11:29:04;1.00;;;0.50;;
6290;SDS011;3178;48.730;8.990;2023-04-01T11:43:12;3.73;;;0.50;;
6290;SDS011;3178;48.730;8.990;2023-04-01T11:46:12;0.90;;;0.40;;
6290;SDS011;3178;48.730;8.990;2023-04-01T11:48:53;0.93;;;0.50;;
6290;SDS011;3178;48.730;8.990;2023-04-01T11:57:35;1.10;;;0.60;;
6290;SDS011;3178;48.730;8.990;2023-04-01T12:03:04;1.67;;;0.57;;
6290;SDS011;3178;48.730;8.990;2023-04-01T12:14:45;0.90;;;0.50;;
6290;SDS011;3178;48.730;8.990;2023-04-01T12:17:39;1.70;;;0.97;;
6290;SDS011;3178;48.730;8.990;2023-04-01T12:22:46;1.00;;;0.50;;
6290;SDS011;3178;48.730;8.990;2023-04-01T12:30:46;1.00;;;0.50;;
6290;SDS011;3178;48.730;8.990;2023-04-01T12:44:36;1.10;;;0.50;;
6290;SDS011;3178;48.730;8.990;2023-04-01T12:47:16;1.10;;;0.57;;
6290;SDS011;3178;48.730;8.990;2023-04-01T12:50:26;0.90;;;0.40;;
6290;SDS011;3178;48.730;8.990;2023-04-01T12:53:19;1.30;;;0.60;;
6290;SDS011;3178;48.730;8.990;2023-04-01T12:55:51;0.90;;;0.40;;
6290;SDS011;3178;48.730;8.990;2023-04-01T13:00:56;1.20;;;0.67;;
6290;SDS011;3178;48.730;8.990;2023-04-01T13:03:43;1.20;;;0.50;;
6290;SDS011;3178;48.730;8.990;2023-04-01T13:11:47;0.90;;;0.40;;
6290;SDS011;3178;48.730;8.990;2023-04-01T13:16:54;1.00;;;0.50;;
6290;SDS011;3178;48.730;8.990;2023-04-01T13:19:49;1.00;;;0.50;;
6290;SDS011;3178;48.730;8.990;2023-04-01T13:27:34;1.30;;;1.00;;
6290;SDS011;3178;48.730;8.990;2023-04-01T13:30:23;2.60;;;0.80;;
6290;SDS011;3178;48.730;8.990;2023-04-01T13:33:13;1.10;;;0.50;;
6290;SDS011;3178;48.730;8.990;2023-04-01T13:38:48;1.73;;;0.47;;
6290;SDS011;3178;48.730;8.990;2023-04-01T13:41:20;0.90;;;0.50;;
6290;SDS011;3178;48.730;8.990;2023-04-01T13:44:06;0.90;;;0.47;;
6290;SDS011;3178;48.730;8.990;2023-04-01T13:46:39;0.90;;;0.40;;
6290;SDS011;3178;48.730;8.990;2023-04-01T13:54:46;2.00;;;0.50;;
6290;SDS011;3178;48.730;8.990;2023-04-01T13:57:48;1.00;;;0.60;;
6290;SDS011;3178;48.730;8.990;2023-04-01T14:00:42;1.10;;;0.50;;
6290;SDS011;3178;48.730;8.990;2023-04-01T14:09:07;1.10;;;0.60;;
6290;SDS011;3178;48.730;8.990;2023-04-01T14:11:50;2.60;;;0.50;;
6290;SDS011;3178;48.730;8.990;2023-04-01T14:17:13;1.00;;;0.50;;
6290;SDS011;3178;48.730;8.990;2023-04-01T14:27:49;1.10;;;0.50;;
6290;SDS011;3178;48.730;8.990;2023-04-01T14:30:45;0.90;;;0.50;;
6290;SDS011;3178;48.730;8.990;2023-04-01T14:33:30;0.90;;;0.40;;
6290;SDS011;3178;48.730;8.990;2023-04-01T14:36:03;0.90;;;0.40;;
6290;SDS011;3178;48.730;8.990;2023-04-01T14:39:00;0.90;;;0.40;;
6290;SDS011;3178;48.730;8.990;2023-04-01T14:41:57;0.97;;;0.43;;
6290;SDS011;3178;48.730;8.990;2023-04-01T14:44:38;0.90;;;0.50;;
6290;SDS011;3178;48.730;8.990;2023-04-01T14:49:52;0.90;;;0.40;;
6290;SDS011;3178;48.730;8.990;2023-04-01T14:52:27;0.90;;;0.40;;
6290;SDS011;3178;48.730;8.990;2023-04-01T14:55:01;1.93;;;0.50;;
6290;SDS011;3178;48.730;8.990;2023-04-01T14:57:43;0.97;;;0.57;;
6290;SDS011;3178;48.730;8.990;2023-04-01T15:00:30;10.90;;;0.60;;
6290;SDS011;3178;48.730;8.990;2023-04-01T15:03:11;1.00;;;0.50;;
6290;SDS011;3178;48.730;8.990;2023-04-01T15:19:23;1.27;;;0.77;;
6290;SDS011;3178;48.730;8.990;2023-04-01T15:25:03;1.40;;;0.70;;
6290;SDS011;3178;48.730;8.990;2023-04-01T15:31:07;1.10;;;0.50;;
6290;SDS011;3178;48.730;8.990;2023-04-01T15:33:36;1.53;;;0.77;;
6290;SDS011;3178;48.730;8.990;2023-04-01T15:36:23;1.00;;;0.50;;
6290;SDS011;3178;48.730;8.990;2023-04-01T15:39:20;1.07;;;0.63;;
6290;SDS011;3178;48.730;8.990;2023-04-01T15:42:16;1.10;;;0.70;;
6290;SDS011;3178;48.730;8.990;2023-04-01T15:45:05;2.10;;;0.70;;
6290;SDS011;3178;48.730;8.990;2023-04-01T15:47:53;0.90;;;0.40;;
6290;SDS011;3178;48.730;8.990;2023-04-01T15:53:06;1.20;;;0.50;;
6290;SDS011;3178;48.730;8.990;2023-04-01T16:12:40;1.87;;;1.30;;
6290;SDS011;3178;48.730;8.990;2023-04-01T16:15:30;2.40;;;1.20;;
6290;SDS011;3178;48.730;8.990;2023-04-01T16:21:21;1.53;;;0.60;;
6290;SDS011;3178;48.730;8.990;2023-04-01T16:24:19;2.23;;;0.50;;
6290;SDS011;3178;48.730;8.990;2023-04-01T16:27:10;1.10;;;0.70;;
6290;SDS011;3178;48.730;8.990;2023-04-01T16:29:45;1.20;;;0.73;;
6290;SDS011;3178;48.730;8.990;2023-04-01T16:32:34;0.97;;;0.50;;
6290;SDS011;3178;48.730;8.990;2023-04-01T16:41:10;3.13;;;1.47;;
6290;SDS011;3178;48.730;8.990;2023-04-01T16:56:43;5.27;;;1.30;;
6290;SDS011;3178;48.730;8.990;2023-04-01T17:04:13;3.23;;;1.20;;
6290;SDS011;3178;48.730;8.990;2023-04-01T17:15:55;5.33;;;1.27;;
6290;SDS011;3178;48.730;8.990;2023-04-01T17:21:55;3.33;;;1.17;;
6290;SDS011;3178;48.730;8.990;2023-04-01T17:27:45;4.03;;;0.90;;
6290;SDS011;3178;48.730;8.990;2023-04-01T17:36:05;4.53;;;1.40;;
6290;SDS011;3178;48.730;8.990;2023-04-01T17:38:56;4.37;;;1.30;;
6290;SDS011;3178;48.730;8.990;2023-04-01T17:41:57;1.60;;;1.00;;
6290;SDS011;3178;48.730;8.990;2023-04-01T17:49:56;2.70;;;1.00;;
6290;SDS011;3178;48.730;8.990;2023-04-01T17:52:41;4.47;;;1.30;;
6290;SDS011;3178;48.730;8.990;2023-04-01T18:03:54;3.30;;;2.13;;
6290;SDS011;3178;48.730;8.990;2023-04-01T18:12:04;4.10;;;1.73;;
6290;SDS011;3178;48.730;8.990;2023-04-01T18:14:53;2.73;;;1.47;;
6290;SDS011;3178;48.730;8.990;2023-04-01T18:17:58;4.00;;;1.17;;
6290;SDS011;3178;48.730;8.990;2023-04-01T18:20:39;2.07;;;0.90;;
6290;SDS011;3178;48.730;8.990;2023-04-01T18:23:24;1.77;;;1.37;;
6290;SDS011;3178;48.730;8.990;2023-04-01T18:26:01;3.53;;;1.30;;
6290;SDS011;3178;48.730;8.990;2023-04-01T18:28:36;2.30;;;1.17;;
6290;SDS011;3178;48.730;8.990;2023-04-01T18:31:07;3.40;;;1.53;;
6290;SDS011;3178;48.730;8.990;2023-04-01T18:33:54;4.10;;;2.27;;
6290;SDS011;3178;48.730;8.990;2023-04-01T18:36:37;2.50;;;1.20;;
6290;SDS011;3178;48.730;8.990;2023-04-01T18:39:35;2.90;;;0.70;;
6290;SDS011;3178;48.730;8.990;2023-04-01T18:42:16;1.43;;;0.77;;
6290;SDS011;3178;48.730;8.990;2023-04-01T18:45:14;1.50;;;0.87;;
6290;SDS011;3178;48.730;8.990;2023-04-01T18:47:54;1.00;;;0.63;;
6290;SDS011;3178;48.730;8.990;2023-04-01T18:56:02;2.90;;;1.00;;
6290;SDS011;3178;48.730;8.990;2023-04-01T18:58:36;2.00;;;0.70;;
6290;SDS011;3178;48.730;8.990;2023-04-01T19:01:21;4.17;;;1.13;;
6290;SDS011;3178;48.730;8.990;2023-04-01T19:06:57;2.37;;;1.10;;
6290;SDS011;3178;48.730;8.990;2023-04-01T19:09:32;2.70;;;1.27;;
6290;SDS011;3178;48.730;8.990;2023-04-01T19:14:52;4.47;;;1.70;;
6290;SDS011;3178;48.730;8.990;2023-04-01T19:26:10;5.37;;;1.17;;
6290;SDS011;3178;48.730;8.990;2023-04-01T19:34:07;2.10;;;1.10;;
6290;SDS011;3178;48.730;8.990;2023-04-01T19:50:38;7.17;;;2.67;;
6290;SDS011;3178;48.730;8.990;2023-04-01T19:53:15;3.67;;;2.40;;
6290;SDS011;3178;48.730;8.990;2023-04-01T19:55:58;7.20;;;2.53;;
6290;SDS011;3178;48.730;8.990;2023-04-01T19:58:39;4.77;;;2.27;;
6290;SDS011;3178;48.730;8.990;2023-04-01T20:01:20;4.40;;;1.30;;
6290;SDS011;3178;48.730;8.990;2023-04-01T20:03:58;2.90;;;1.20;;
6290;SDS011;3178;48.730;8.990;2023-04-01T20:06:41;3.13;;;1.20;;
6290;SDS011;3178;48.730;8.990;2023-04-01T20:09:21;4.17;;;2.97;;
6290;SDS011;3178;48.730;8.990;2023-04-01T20:14:59;4.20;;;2.73;;
6290;SDS011;3178;48.730;8.990;2023-04-01T20:17:43;2.33;;;2.03;;
6290;SDS011;3178;48.730;8.990;2023-04-01T20:27:49;1.83;;;1.20;;
6290;SDS011;3178;48.730;8.990;2023-04-01T20:36:20;2.10;;;1.70;;
6290;SDS011;3178;48.730;8.990;2023-04-01T20:44:22;5.83;;;1.20;;
6290;SDS011;3178;48.730;8.990;2023-04-01T20:47:23;2.60;;;0.93;;
6290;SDS011;3178;48.730;8.990;2023-04-01T20:50:02;1.40;;;1.00;;
6290;SDS011;3178;48.730;8.990;2023-04-01T21:04:25;1.33;;;0.83;;
6290;SDS011;3178;48.730;8.990;2023-04-01T21:23:37;2.80;;;1.93;;
6290;SDS011;3178;48.730;8.990;2023-04-01T21:26:22;1.97;;;1.43;;
6290;SDS011;3178;48.730;8.990;2023-04-01T21:42:24;1.30;;;0.80;;
6290;SDS011;3178;48.730;8.990;2023-04-01T21:45:09;0.93;;;0.53;;
6290;SDS011;3178;48.730;8.990;2023-04-01T21:48:10;3.00;;;0.90;;
6290;SDS011;3178;48.730;8.990;2023-04-01T21:51:08;2.00;;;1.03;;
6290;SDS011;3178;48.730;8.990;2023-04-01T21:57:03;1.60;;;1.00;;
6290;SDS011;3178;48.730;8.990;2023-04-01T22:10:26;1.27;;;0.90;;
6290;SDS011;3178;48.730;8.990;2023-04-01T22:13:09;2.67;;;1.67;;
6290;SDS011;3178;48.730;8.990;2023-04-01T22:21:39;4.23;;;1.10;;
6290;SDS011;3178;48.730;8.990;2023-04-01T22:24:23;1.73;;;0.70;;
6290;SDS011;3178;48.730;8.990;2023-04-01T22:30:11;2.50;;;0.90;;
6290;SDS011;3178;48.730;8.990;2023-04-01T22:32:45;1.00;;;0.60;;
6290;SDS011;3178;48.730;8.990;2023-04-01T22:35:29;1.10;;;0.63;;
6290;SDS011;3178;48.730;8.990;2023-04-01T22:44:08;1.00;;;0.60;;
6290;SDS011;3178;48.730;8.990;2023-04-01T22:47:02;1.87;;;0.70;;
6290;SDS011;3178;48.730;8.990;2023-04-01T22:49:45;1.10;;;0.67;;
6290;SDS011;3178;48.730;8.990;2023-04-01T22:54:57;0.90;;;0.40;;
6290;SDS011;3178;48.730;8.990;2023-04-01T22:57:41;1.20;;;0.60;;
6290;SDS011;3178;48.730;8.990;2023-04-01T23:02:59;2.50;;;0.83;;
6290;SDS011;3178;48.730;8.990;2023-04-01T23:05:33;1.20;;;0.60;;
6290;SDS011;3178;48.730;8.990;2023-04-01T23:14:12;2.97;;;0.60;;
6290;SDS011;3178;48.730;8.990;2023-04-01T23:17:01;1.77;;;0.80;;
6290;SDS011;3178;48.730;8.990;2023-04-01T23:19:52;1.40;;;0.80;;
6290;SDS011;3178;48.730;8.990;2023-04-01T23:22:36;1.37;;;0.73;;
6290;SDS011;3178;48.730;8.990;2023-04-01T23:27:47;1.93;;;0.77;;
6290;SDS011;3178;48.730;8.990;2023-04-01T23:33:50;1.77;;;1.00;;
6290;SDS011;3178;48.730;8.990;2023-04-01T23:35:56;1.40;;;0.80;;
6290;SDS011;3178;48.730;8.990;2023-04-01T23:38:34;1.27;;;0.80;;
6290;SDS011;3178;48.730;8.990;2023-04-01T23:41:02;1.87;;;0.70;;
6290;SDS011;3178;48.730;8.990;2023-04-01T23:43:30;1.30;;;0.90;;
6290;SDS011;3178;48.730;8.990;2023-04-01T23:46:05;1.20;;;0.87;;
6290;SDS011;3178;48.730;8.990;2023-04-01T23:48:36;4.00;;;1.10;;
6290;SDS011;3178;48.730;8.990;2023-04-01T23:51:04;2.23;;;0.80;;
6290;SDS011;3178;48.730;8.990;2023-04-01T23:53:57;1.20;;;0.80;;
6290;SDS011;3178;48.730;8.990;2023-04-01T23:56:46;2.23;;;0.77;;
6290;SDS011;3178;48.730;8.990;2023-04-01T23:59:22;1.30;;;0.67;;
